LS507 / G-JZBH 7700 Squawk Report (1st of July, 2022)

Aircraft B738 Reg No. G-JZBH Age 4 years old
Model 737 Jet engines 2 First flight 11-01-18
Registered 31-01-18 Rollout N/A Delivered 31-01-18
Construction No. 63163 Line No. 6765 Series 800
ADSHEX 40717C Airline name Jet2 Owner N/A
Airfield based Leeds-Bradford~Yorks~G First tracked N/A

Flight history for G-JZBH

Route Flight No Date Playback
Arrecife Airport (ACE) - Belfast International (BFS) LS310 2022-08-11 22:46:00
Belfast International (BFS) - Arrecife Airport (ACE) LS309 2022-08-11 19:06:00
Reus (REU) - Belfast International (BFS) LS304 2022-08-11 12:17:00
Belfast International (BFS) - Reus (REU) LS303 2022-08-11 10:02:00
Dionysios Solomos (ZTH) - Belfast International (BFS) LS336 2022-08-10 22:59:00
Belfast International (BFS) - Dionysios Solomos (ZTH) LS335 2022-08-10 17:42:00
Son Sant Joan (PMI) - Belfast International (BFS) LS362 2022-08-10 14:02:00
Belfast International (BFS) - Son Sant Joan (PMI) LS361 2022-08-10 09:58:00
Rhodes Diagoras (RHO) - Belfast International (BFS) LS326 2022-08-10 05:50:00
Belfast International (BFS) - Rhodes Diagoras (RHO) LS325 2022-08-09 20:11:00
Ibiza (IBZ) - Belfast International (BFS) LS398 2022-08-09 14:15:00
Belfast International (BFS) - Ibiza (IBZ) LS397 2022-08-09 09:58:00
Dalaman (DLM) - Belfast International (BFS) LS380 2022-08-09 05:53:00
East Midlands Airport (EMA) - Dalaman (DLM) LS621 2022-08-08 21:34:00
Faro (FAO) - East Midlands Airport (EMA) LS686 2022-08-08 12:46:00
East Midlands Airport (EMA) - Faro (FAO) LS685 2022-08-08 10:22:00
Alexandros Papadiamantis (JSI) - East Midlands Airport (EMA) LS680 2022-08-08 06:39:00
East Midlands Airport (EMA) - Dubrovnik (DBV) LS627 2022-08-07 18:30:00
Alicante (ALC) - East Midlands Airport (EMA) LS642 2022-08-07 13:31:00
East Midlands Airport (EMA) - Alicante (ALC) LS641 2022-08-07 09:27:00
Time Lat Lon Altitude Heading Speed Vertical Rate
2022-07-01 16:15:49 GMT 55.039570 -1.704820 0 272 5 0
2022-07-01 16:15:42 GMT 55.039558 -1.704587 0 272 6 0
2022-07-01 16:15:38 GMT 55.039558 -1.704358 0 275 5 0
2022-07-01 16:15:26 GMT 55.039536 -1.703971 0 312 5 0
2022-07-01 16:15:05 GMT 55.039215 -1.703810 0 2 5 0
2022-07-01 16:15:02 GMT 55.039177 -1.703817 0 2 5 0
2022-07-01 16:14:25 GMT 55.038208 -1.703951 0 14 7 0
2022-07-01 16:14:22 GMT 55.038151 -1.703971 0 16 7 0
2022-07-01 16:14:16 GMT 55.037979 -1.704067 0 16 7 0
2022-07-01 16:14:01 GMT 55.037605 -1.704233 0 5 6 0
2022-07-01 16:13:56 GMT 55.037476 -1.704254 0 2 7 0
2022-07-01 16:13:51 GMT 55.037304 -1.704275 0 2 7 0
2022-07-01 16:13:38 GMT 55.036938 -1.704335 0 2 7 0
2022-07-01 16:13:24 GMT 55.036522 -1.704379 0 11 10 0
2022-07-01 16:13:08 GMT 55.035976 -1.705045 0 75 8 0
2022-07-01 16:13:03 GMT 55.035942 -1.705264 0 81 7 0
2022-07-01 16:12:55 GMT 55.035908 -1.705690 0 75 8 0
2022-07-01 16:12:46 GMT 55.035782 -1.706193 0 33 7 0
2022-07-01 16:10:33 GMT 55.035370 -1.706397 0 0 0 0
2022-07-01 16:10:20 GMT 55.035278 -1.706397 0 2 7 0
2022-07-01 16:10:11 GMT 55.034973 -1.706418 0 2 10 0
2022-07-01 16:10:02 GMT 55.034500 -1.706455 0 2 12 0
2022-07-01 16:09:34 GMT 55.033791 -1.705365 0 247 13 0
2022-07-01 16:09:24 GMT 55.034054 -1.704375 0 247 19 0
2022-07-01 16:09:21 GMT 55.034145 -1.704012 0 244 21 0
2022-07-01 16:09:12 GMT 55.034569 -1.702416 0 244 25 0
2022-07-01 16:09:02 GMT 55.035091 -1.700446 0 247 30 0
2022-07-01 16:08:51 GMT 55.035755 -1.697970 0 247 41 0
2022-07-01 16:08:42 GMT 55.036514 -1.695106 225 247 55 0
2022-07-01 16:08:31 GMT 55.037872 -1.690063 225 245 100 -64
2022-07-01 16:08:21 GMT 55.039810 -1.682685 200 246 140 0
2022-07-01 16:08:13 GMT 55.042969 -1.670891 325 246 146 -704
2022-07-01 16:08:05 GMT 55.044434 -1.665237 400 246 146 -832
2022-07-01 16:07:55 GMT 55.047089 -1.655220 525 245 145 -896
2022-07-01 16:07:45 GMT 55.050064 -1.644072 675 246 146 -832
2022-07-01 16:07:35 GMT 55.052856 -1.633408 800 246 147 -832
2022-07-01 16:07:25 GMT 55.055702 -1.622647 925 246 146 -704
2022-07-01 16:07:18 GMT 55.057663 -1.615313 1,075 246 146 -832
2022-07-01 16:07:13 GMT 55.059055 -1.610163 1,100 246 146 -768
2022-07-01 16:07:05 GMT 55.061600 -1.600530 1,200 246 146 -704
2022-07-01 16:07:00 GMT 55.062881 -1.595845 1,275 246 147 -832
2022-07-01 16:06:54 GMT 55.064484 -1.589625 1,350 246 147 -832
2022-07-01 16:06:50 GMT 55.065399 -1.586070 1,400 246 147 -768
2022-07-01 16:06:44 GMT 55.067276 -1.578962 1,500 246 147 -704
2022-07-01 16:06:39 GMT 55.068787 -1.573145 1,550 246 147 -704
2022-07-01 16:06:31 GMT 55.070972 -1.564969 1,650 246 149 -832
2022-07-01 16:06:28 GMT 55.071716 -1.562159 1,675 246 150 -768
2022-07-01 16:06:25 GMT 55.072693 -1.558394 1,725 246 153 -832
2022-07-01 16:06:21 GMT 55.074005 -1.553515 1,775 246 153 -896
2022-07-01 16:06:18 GMT 55.074738 -1.550688 1,800 246 156 -832
2022-07-01 16:06:15 GMT 55.075768 -1.546825 1,850 246 158 -768
2022-07-01 16:06:12 GMT 55.076790 -1.542747 1,900 246 160 -832
2022-07-01 16:06:08 GMT 55.077896 -1.538490 1,950 246 160 -960
2022-07-01 16:06:03 GMT 55.079407 -1.532593 2,025 246 159 -832
2022-07-01 16:05:59 GMT 55.080795 -1.527516 2,125 245 158 -768
2022-07-01 16:05:55 GMT 55.081818 -1.523687 2,125 245 157 -768
2022-07-01 16:05:50 GMT 55.083492 -1.517528 2,200 245 157 -896
2022-07-01 16:05:45 GMT 55.086273 -1.507227 2,325 245 159 -896
2022-07-01 16:05:41 GMT 55.086273 -1.507227 2,350 245 159 -832
2022-07-01 16:05:38 GMT 55.087219 -1.503795 2,375 245 160 -896
2022-07-01 16:05:35 GMT 55.088104 -1.500522 2,425 245 161 -896
2022-07-01 16:05:32 GMT 55.089020 -1.497130 2,475 245 163 -832
2022-07-01 16:05:29 GMT 55.091446 -1.488405 2,525 245 164 -960
2022-07-01 16:05:25 GMT 55.091446 -1.488405 2,575 245 165 -1024
2022-07-01 16:05:22 GMT 55.092316 -1.485174 2,625 245 165 -832
2022-07-01 16:05:19 GMT 55.094604 -1.476692 2,675 245 166 -832
2022-07-01 16:05:16 GMT 55.094604 -1.476692 2,700 246 166 -640
2022-07-01 16:05:12 GMT 55.095596 -1.473000 2,775 246 166 -640
2022-07-01 16:05:09 GMT 55.096577 -1.469421 2,775 246 166 -640
2022-07-01 16:05:04 GMT 55.097992 -1.463928 2,825 247 165 -256
2022-07-01 16:04:59 GMT 55.099640 -1.457143 2,850 252 165 -128
2022-07-01 16:04:55 GMT 55.100857 -1.451527 2,850 252 165 -128
2022-07-01 16:04:51 GMT 55.101788 -1.446616 2,850 254 165 -64
2022-07-01 16:04:48 GMT 55.102432 -1.443087 2,850 255 164 -64
2022-07-01 16:04:45 GMT 55.103092 -1.438793 2,850 255 164 -64
2022-07-01 16:04:40 GMT 55.103886 -1.433716 2,850 255 164 -64
2022-07-01 16:04:37 GMT 55.104630 -1.428972 2,850 255 164 64
2022-07-01 16:04:32 GMT 55.105698 -1.422064 2,850 257 164 0
2022-07-01 16:04:28 GMT 55.106964 -1.412874 2,875 258 165 -384
2022-07-01 16:04:25 GMT 55.106964 -1.412874 2,875 260 165 -640
2022-07-01 16:04:19 GMT 55.107655 -1.405334 2,975 275 166 -1216
2022-07-01 16:04:14 GMT 55.107376 -1.399009 3,075 289 169 -1344
2022-07-01 16:04:09 GMT 55.105885 -1.391768 3,200 292 170 -1280
2022-07-01 16:04:04 GMT 55.104630 -1.386275 3,275 292 170 -1024
2022-07-01 16:04:01 GMT 55.103699 -1.382113 3,350 292 171 -832
2022-07-01 16:03:58 GMT 55.103001 -1.378867 3,375 292 172 -768
2022-07-01 16:03:54 GMT 55.101883 -1.373937 3,425 294 173 -960
2022-07-01 16:03:51 GMT 55.100765 -1.369296 3,500 300 175 -1088
2022-07-01 16:03:48 GMT 55.099648 -1.365384 3,550 305 176 -1024
2022-07-01 16:03:45 GMT 55.097855 -1.360608 3,600 312 179 -896
2022-07-01 16:03:40 GMT 55.095551 -1.356395 3,650 325 186 -704
2022-07-01 16:03:37 GMT 55.091221 -1.351402 3,700 335 191 -768
2022-07-01 16:03:34 GMT 55.091221 -1.351402 3,725 345 196 -960
2022-07-01 16:03:31 GMT 55.088474 -1.349571 3,800 345 196 -960
2022-07-01 16:03:28 GMT 55.086426 -1.348489 3,825 347 198 -832
2022-07-01 16:03:24 GMT 55.082935 -1.347074 3,875 348 201 -960
2022-07-01 16:03:20 GMT 55.078857 -1.345502 3,950 348 203 -1152
2022-07-01 16:03:17 GMT 55.076931 -1.344743 4,000 348 204 -1216
2022-07-01 16:03:14 GMT 55.073391 -1.343412 4,050 348 206 -1088
2022-07-01 16:03:09 GMT 55.069389 -1.341913 4,125 348 209 -832
2022-07-01 16:03:05 GMT 55.065079 -1.340170 4,200 348 212 -960
2022-07-01 16:02:58 GMT 55.057842 -1.337419 4,375 348 213 -1472
2022-07-01 16:02:53 GMT 55.053680 -1.335889 4,450 348 214 -1344
2022-07-01 16:02:50 GMT 55.050293 -1.334597 4,550 348 215 -1280
2022-07-01 16:02:47 GMT 55.047882 -1.333674 4,600 348 215 -1344
2022-07-01 16:02:44 GMT 55.045414 -1.332758 4,650 348 215 -1472
2022-07-01 16:02:37 GMT 55.037933 -1.329911 4,975 352 220 -1152
2022-07-01 16:02:34 GMT 55.035545 -1.329096 4,900 351 218 -1280
2022-07-01 16:02:27 GMT 55.028000 -1.327488 5,075 17 234 -1216
2022-07-01 16:02:24 GMT 55.025070 -1.327764 5,100 8 229 -1152
2022-07-01 16:02:17 GMT 55.017654 -1.330638 5,250 19 235 -1152
2022-07-01 16:02:14 GMT 55.014496 -1.332577 5,350 21 240 -768
2022-07-01 16:02:09 GMT 55.009617 -1.336004 5,350 21 240 -768
2022-07-01 16:02:06 GMT 55.005379 -1.338917 5,400 21 241 -896
2022-07-01 16:02:03 GMT 55.003098 -1.340494 5,425 21 241 -896
2022-07-01 16:01:59 GMT 54.999069 -1.343321 5,500 21 243 -960
2022-07-01 16:01:56 GMT 54.994904 -1.346229 5,575 21 245 -640
2022-07-01 16:01:53 GMT 54.993320 -1.347323 5,575 21 245 -640
2022-07-01 16:01:49 GMT 54.988129 -1.350995 5,600 22 251 -256
2022-07-01 16:01:46 GMT 54.985886 -1.352611 5,600 23 253 -256
2022-07-01 16:01:43 GMT 54.982361 -1.355196 5,600 23 253 -256
2022-07-01 16:01:37 GMT 54.975037 -1.361982 5,700 36 260 -832
2022-07-01 16:01:33 GMT 54.972141 -1.365717 5,900 54 267 -1152
2022-07-01 16:01:29 GMT 54.966293 -1.376280 5,825 53 266 -1152
2022-07-01 16:01:26 GMT 54.966293 -1.376280 5,875 56 267 -832
2022-07-01 16:01:23 GMT 54.963856 -1.382197 5,925 58 270 -704
2022-07-01 16:01:19 GMT 54.959293 -1.395014 5,975 58 270 -704
2022-07-01 16:01:16 GMT 54.959293 -1.395014 5,975 58 270 -704
2022-07-01 16:01:12 GMT 54.956543 -1.402857 6,050 59 271 -960
2022-07-01 16:01:09 GMT 54.952824 -1.413741 6,100 60 271 -1088
2022-07-01 16:01:06 GMT 54.952824 -1.413741 6,150 63 271 -1152
2022-07-01 16:01:02 GMT 54.950912 -1.420306 6,250 76 271 -1216
2022-07-01 16:00:58 GMT 54.948261 -1.432800 6,350 78 270 -1216
2022-07-01 16:00:55 GMT 54.947754 -1.436624 6,375 81 270 -1216
2022-07-01 16:00:52 GMT 54.947250 -1.442036 6,525 103 267 -1344
2022-07-01 16:00:48 GMT 54.946884 -1.451326 6,525 94 268 -1216
2022-07-01 16:00:45 GMT 54.947559 -1.464011 6,625 103 267 -1344
2022-07-01 16:00:42 GMT 54.947559 -1.464011 6,650 105 266 -1344
2022-07-01 16:00:38 GMT 54.948864 -1.472501 6,725 111 265 -1344
2022-07-01 16:00:34 GMT 54.950310 -1.479076 6,800 114 265 -1216
2022-07-01 16:00:31 GMT 54.951752 -1.484736 6,925 115 265 -1088
2022-07-01 16:00:28 GMT 54.953705 -1.492040 6,925 115 265 -1216
2022-07-01 16:00:24 GMT 54.955673 -1.499230 7,050 115 265 -1344
2022-07-01 16:00:21 GMT 54.957092 -1.504400 7,050 115 265 -1344
2022-07-01 16:00:17 GMT 54.959015 -1.511509 7,150 115 265 -1344
2022-07-01 16:00:14 GMT 54.960876 -1.518444 7,275 114 264 -1216
2022-07-01 16:00:11 GMT 54.962273 -1.523687 7,275 114 264 -1216
2022-07-01 16:00:08 GMT 54.964050 -1.530250 7,375 112 266 -1152
2022-07-01 16:00:05 GMT 54.965439 -1.535922 7,425 106 268 -1152
2022-07-01 16:00:01 GMT 54.967163 -1.543741 7,500 103 269 -1152
2022-07-01 15:59:57 GMT 54.968399 -1.551900 7,550 94 271 -1024
2022-07-01 15:59:54 GMT 54.969177 -1.565713 7,650 89 273 -1216
2022-07-01 15:59:51 GMT 54.969177 -1.565713 7,700 85 273 -1280
2022-07-01 15:59:47 GMT 54.968884 -1.573625 7,775 81 273 -1408
2022-07-01 15:59:44 GMT 54.968399 -1.579689 7,825 79 274 -1344
2022-07-01 15:59:41 GMT 54.967625 -1.587025 7,900 80 274 -1216
2022-07-01 15:59:37 GMT 54.966751 -1.595764 8,025 98 271 -1472
2022-07-01 15:59:34 GMT 54.966064 -1.609578 8,075 90 273 -1280
2022-07-01 15:59:31 GMT 54.966064 -1.609578 8,100 94 271 -1344
2022-07-01 15:59:27 GMT 54.966339 -1.618060 8,200 100 270 -1408
2022-07-01 15:59:23 GMT 54.967346 -1.627673 8,300 106 268 -1152
2022-07-01 15:59:20 GMT 54.968090 -1.632302 8,350 109 268 -1024
2022-07-01 15:59:17 GMT 54.969452 -1.639225 8,400 116 268 -896
2022-07-01 15:59:13 GMT 54.971786 -1.647545 8,475 133 264 -1472
2022-07-01 15:59:10 GMT 54.973160 -1.651423 8,500 126 266 -1344
2022-07-01 15:59:07 GMT 54.975677 -1.657481 8,600 133 264 -1472
2022-07-01 15:59:03 GMT 54.978882 -1.663621 8,800 144 260 -1600
2022-07-01 15:59:00 GMT 54.981777 -1.668091 8,775 144 260 -1600
2022-07-01 15:58:57 GMT 54.984329 -1.671376 8,875 150 258 -1280
2022-07-01 15:58:54 GMT 54.987968 -1.675332 8,900 154 258 -1024
2022-07-01 15:58:50 GMT 54.992020 -1.678889 8,975 160 257 -512
2022-07-01 15:58:46 GMT 54.995789 -1.681408 9,000 163 256 -256
2022-07-01 15:58:43 GMT 54.999046 -1.683155 9,000 169 255 64
2022-07-01 15:58:40 GMT 55.003098 -1.684737 9,000 175 254 64
2022-07-01 15:58:37 GMT 55.007538 -1.685674 9,000 177 255 0
2022-07-01 15:58:33 GMT 55.011524 -1.685902 9,000 183 254 -320
2022-07-01 15:58:29 GMT 55.015202 -1.685569 9,075 192 253 -960
2022-07-01 15:58:26 GMT 55.019348 -1.684463 9,100 193 253 -896
2022-07-01 15:58:23 GMT 55.022324 -1.683322 9,125 198 252 -960
2022-07-01 15:58:19 GMT 55.027313 -1.680585 9,325 211 251 -1408
2022-07-01 15:58:16 GMT 55.030518 -1.678078 9,275 211 251 -1408
2022-07-01 15:58:13 GMT 55.033951 -1.674688 9,350 215 251 -1344
2022-07-01 15:58:09 GMT 55.040451 -1.666287 9,500 225 250 -1344
2022-07-01 15:58:05 GMT 55.040451 -1.666287 9,500 224 249 -1344
2022-07-01 15:58:02 GMT 55.043793 -1.660470 9,550 228 249 -1344
2022-07-01 15:57:58 GMT 55.047821 -1.651180 9,750 238 249 -1344
2022-07-01 15:57:55 GMT 55.047821 -1.651180 9,750 241 249 -1280
2022-07-01 15:57:52 GMT 55.049652 -1.645619 9,775 243 249 -1280
2022-07-01 15:57:49 GMT 55.051620 -1.638821 9,875 245 249 -1216
2022-07-01 15:57:46 GMT 55.052631 -1.635215 9,925 245 250 -1280
2022-07-01 15:57:43 GMT 55.054413 -1.628642 10,050 245 250 0
2022-07-01 15:57:40 GMT 55.055832 -1.623392 10,050 245 250 -1280
2022-07-01 15:57:36 GMT 55.058487 -1.613617 10,175 245 250 -1216
2022-07-01 15:57:33 GMT 55.059708 -1.609247 10,225 245 250 -1344
2022-07-01 15:57:28 GMT 55.063339 -1.596007 10,350 245 250 -1344
2022-07-01 15:57:25 GMT 55.063339 -1.596007 10,375 245 250 -1344
2022-07-01 15:57:21 GMT 55.065434 -1.588190 10,475 245 250 -1280
2022-07-01 15:57:17 GMT 55.069576 -1.572876 10,725 245 250 -1280
2022-07-01 15:57:13 GMT 55.069576 -1.572876 10,650 245 250 -1280
2022-07-01 15:57:07 GMT 55.074417 -1.555050 10,800 245 251 -1216
2022-07-01 15:57:03 GMT 55.074417 -1.555050 10,875 245 250 -1216
2022-07-01 15:57:00 GMT 55.077667 -1.543418 10,950 244 250 0
2022-07-01 15:56:56 GMT 55.077667 -1.543418 11,000 244 252 -1216
2022-07-01 15:56:53 GMT 55.080780 -1.532512 11,100 247 252 -1152
2022-07-01 15:56:50 GMT 55.080780 -1.532512 11,100 247 252 -1152
2022-07-01 15:56:45 GMT 55.083260 -1.522189 11,250 272 256 -1280
2022-07-01 15:56:42 GMT 55.084240 -1.516529 11,400 272 256 -1280
2022-07-01 15:56:38 GMT 55.085175 -1.507631 11,400 272 256 -1280
2022-07-01 15:56:35 GMT 55.085541 -1.493898 11,500 272 256 -1280
2022-07-01 15:56:31 GMT 55.085541 -1.493898 11,500 283 257 -1216
2022-07-01 15:56:29 GMT 55.085121 -1.486067 11,550 283 257 -1216
2022-07-01 15:56:27 GMT 55.085121 -1.486067 11,800 283 257 -1216
2022-07-01 15:56:24 GMT 55.083076 -1.471918 11,800 288 259 -1344
2022-07-01 15:56:20 GMT 55.083076 -1.471918 11,800 293 261 -1408
2022-07-01 15:56:17 GMT 55.081631 -1.465926 11,800 301 263 -1216
2022-07-01 15:56:15 GMT 55.080597 -1.462313 11,850 311 268 0
2022-07-01 15:56:14 GMT 55.078262 -1.455608 11,950 311 268 -768
2022-07-01 15:56:11 GMT 55.078262 -1.455608 11,950 311 268 -768
2022-07-01 15:56:08 GMT 55.075722 -1.449446 11,950 316 270 -512
2022-07-01 15:56:05 GMT 55.072834 -1.443870 12,000 320 271 -256
2022-07-01 15:56:02 GMT 55.070206 -1.439532 12,000 323 273 -64
2022-07-01 15:55:59 GMT 55.063755 -1.431052 12,000 333 276 64
2022-07-01 15:55:55 GMT 55.063755 -1.431052 12,000 333 276 64
2022-07-01 15:55:52 GMT 55.060135 -1.427657 12,000 338 278 64
2022-07-01 15:55:49 GMT 55.056015 -1.424587 12,000 344 281 0
2022-07-01 15:55:45 GMT 55.051712 -1.422164 12,000 346 281 0
2022-07-01 15:55:43 GMT 55.049652 -1.421437 12,000 353 283 0
2022-07-01 15:55:40 GMT 55.046585 -1.420387 12,000 0 286 0
2022-07-01 15:55:36 GMT 55.040573 -1.419650 12,000 2 286 0
2022-07-01 15:55:34 GMT 55.037548 -1.419733 12,000 12 287 0
2022-07-01 15:55:33 GMT 55.034103 -1.420399 12,000 12 287 0
2022-07-01 15:55:29 GMT 55.030704 -1.421398 12,000 15 288 0
2022-07-01 15:55:27 GMT 55.028275 -1.422406 12,000 17 289 0
2022-07-01 15:55:26 GMT 55.026886 -1.423146 12,000 20 289 0
2022-07-01 15:55:25 GMT 55.025620 -1.423860 12,000 22 289 0
2022-07-01 15:55:19 GMT 55.018890 -1.429030 12,000 37 291 -64
2022-07-01 15:55:18 GMT 55.017715 -1.430137 12,000 37 291 -64
2022-07-01 15:55:15 GMT 55.014862 -1.433150 12,000 37 291 -64
2022-07-01 15:55:12 GMT 55.009781 -1.440098 12,000 46 292 -64
2022-07-01 15:55:08 GMT 55.007675 -1.443814 12,000 50 292 -64
2022-07-01 15:55:06 GMT 55.005753 -1.447698 12,000 59 294 64
2022-07-01 15:55:04 GMT 55.004105 -1.451488 12,000 59 294 64
2022-07-01 15:55:02 GMT 55.002678 -1.455272 12,000 61 294 64
2022-07-01 15:55:00 GMT 54.998795 -1.468048 12,000 63 295 0
2022-07-01 15:54:57 GMT 54.997513 -1.472751 12,000 64 296 0
2022-07-01 15:54:54 GMT 54.997513 -1.472751 12,000 64 296 0
2022-07-01 15:54:50 GMT 54.995136 -1.481573 12,000 65 296 64
2022-07-01 15:54:47 GMT 54.993553 -1.487399 12,000 65 296 64
2022-07-01 15:54:46 GMT 54.992981 -1.489536 12,000 65 297 64
2022-07-01 15:54:44 GMT 54.991276 -1.496055 12,000 65 297 64
2022-07-01 15:54:43 GMT 54.991276 -1.496055 12,000 65 297 64
2022-07-01 15:54:40 GMT 54.989548 -1.502542 12,000 65 298 0
2022-07-01 15:54:38 GMT 54.988220 -1.507550 12,000 65 299 0
2022-07-01 15:54:36 GMT 54.987316 -1.510787 12,000 64 300 0
2022-07-01 15:54:33 GMT 54.985500 -1.517611 12,000 64 300 0
2022-07-01 15:54:32 GMT 54.984943 -1.519775 12,000 64 300 0
2022-07-01 15:54:30 GMT 54.983826 -1.523937 12,000 64 301 0
2022-07-01 15:54:29 GMT 54.982498 -1.528715 12,000 64 301 0
2022-07-01 15:54:28 GMT 54.981358 -1.532926 12,000 64 301 -64
2022-07-01 15:54:25 GMT 54.980667 -1.535501 12,000 64 301 -64
2022-07-01 15:54:24 GMT 54.980103 -1.537503 12,000 64 301 -64
2022-07-01 15:54:22 GMT 54.978790 -1.542287 12,000 63 300 0
2022-07-01 15:54:21 GMT 54.977215 -1.547907 12,000 63 300 0
2022-07-01 15:54:18 GMT 54.975075 -1.555481 12,000 63 300 64
2022-07-01 15:54:16 GMT 54.975075 -1.555481 12,000 63 299 64
2022-07-01 15:54:13 GMT 54.973068 -1.562320 12,000 63 299 64
2022-07-01 15:54:10 GMT 54.970837 -1.570046 12,000 67 298 0
2022-07-01 15:54:07 GMT 54.969315 -1.575730 12,000 72 297 0
2022-07-01 15:54:04 GMT 54.967766 -1.582364 12,000 72 297 0
2022-07-01 15:54:01 GMT 54.965904 -1.594599 12,000 79 296 0
2022-07-01 15:53:59 GMT 54.965904 -1.594599 12,000 86 293 -128
2022-07-01 15:53:56 GMT 54.965389 -1.600425 12,000 89 293 -128
2022-07-01 15:53:53 GMT 54.965195 -1.606589 12,000 89 293 -128
2022-07-01 15:53:52 GMT 54.965195 -1.611113 12,000 94 291 0
2022-07-01 15:53:49 GMT 54.965332 -1.615798 12,000 98 290 64
2022-07-01 15:53:47 GMT 54.965717 -1.621316 12,000 106 286 64
2022-07-01 15:53:45 GMT 54.966137 -1.624728 12,000 106 286 64
2022-07-01 15:53:43 GMT 54.967068 -1.631220 12,000 109 284 64
2022-07-01 15:53:42 GMT 54.967857 -1.635631 12,000 113 283 64
2022-07-01 15:53:39 GMT 54.968601 -1.638794 12,000 116 281 0
2022-07-01 15:53:36 GMT 54.970558 -1.645952 12,000 121 279 0
2022-07-01 15:53:35 GMT 54.972382 -1.651423 12,000 125 278 0
2022-07-01 15:53:33 GMT 54.972382 -1.651423 12,000 126 277 0
2022-07-01 15:53:30 GMT 54.974533 -1.656754 12,000 131 276 -64
2022-07-01 15:53:28 GMT 54.975861 -1.659420 12,000 135 275 0
2022-07-01 15:53:26 GMT 54.978100 -1.663680 12,000 141 273 -64
2022-07-01 15:53:24 GMT 54.980164 -1.667014 12,000 141 273 -64
2022-07-01 15:53:22 GMT 54.981903 -1.669599 12,000 151 270 64
2022-07-01 15:53:21 GMT 54.986115 -1.674688 12,000 151 270 64
2022-07-01 15:53:18 GMT 54.986115 -1.674688 12,000 151 270 64
2022-07-01 15:53:17 GMT 54.988174 -1.676788 12,000 157 269 64
2022-07-01 15:53:15 GMT 54.989273 -1.677838 12,000 157 269 64
2022-07-01 15:53:14 GMT 54.990391 -1.678744 12,000 157 269 64
2022-07-01 15:53:12 GMT 54.994160 -1.681574 12,000 162 268 0
2022-07-01 15:53:11 GMT 54.995224 -1.682201 12,000 165 267 0
2022-07-01 15:53:07 GMT 54.998302 -1.683904 12,000 165 267 0
2022-07-01 15:53:06 GMT 55.000816 -1.684903 12,000 171 265 0
2022-07-01 15:53:04 GMT 55.003239 -1.685652 12,000 176 264 0
2022-07-01 15:53:02 GMT 55.004471 -1.685917 12,000 176 264 0
2022-07-01 15:52:59 GMT 55.008499 -1.686401 12,000 179 264 0
2022-07-01 15:52:58 GMT 55.009689 -1.686482 12,000 185 261 0
2022-07-01 15:52:57 GMT 55.011013 -1.686401 12,000 185 261 0
2022-07-01 15:52:55 GMT 55.013443 -1.686159 12,000 190 260 0
2022-07-01 15:52:53 GMT 55.015961 -1.685674 12,000 195 258 0
2022-07-01 15:52:51 GMT 55.018181 -1.684986 12,000 195 258 0
2022-07-01 15:52:50 GMT 55.019485 -1.684487 12,000 196 258 0
2022-07-01 15:52:48 GMT 55.021683 -1.683574 12,000 201 257 0
2022-07-01 15:52:46 GMT 55.023952 -1.682323 12,000 204 257 0
2022-07-01 15:52:45 GMT 55.025070 -1.681574 12,000 205 256 0
2022-07-01 15:52:43 GMT 55.027164 -1.680159 12,000 207 257 0
2022-07-01 15:52:41 GMT 55.029400 -1.678245 12,000 212 257 0
2022-07-01 15:52:40 GMT 55.031204 -1.676627 12,000 213 256 0
2022-07-01 15:52:38 GMT 55.032242 -1.675581 12,000 215 256 0
2022-07-01 15:52:36 GMT 55.034241 -1.673418 12,000 218 256 0
2022-07-01 15:52:33 GMT 55.036697 -1.670164 12,000 222 256 0
2022-07-01 15:52:30 GMT 55.043041 -1.659768 12,000 227 256 0
2022-07-01 15:52:26 GMT 55.043041 -1.659768 12,000 232 257 0
2022-07-01 15:52:23 GMT 55.044857 -1.655856 12,000 235 256 0
2022-07-01 15:52:21 GMT 55.046127 -1.652877 12,000 236 257 0
2022-07-01 15:52:19 GMT 55.047546 -1.649161 12,000 240 256 0
2022-07-01 15:52:18 GMT 55.048206 -1.647367 12,000 242 257 0
2022-07-01 15:52:17 GMT 55.049278 -1.644121 12,000 251 257 0
2022-07-01 15:52:14 GMT 55.050522 -1.639709 12,000 251 257 0
2022-07-01 15:52:10 GMT 55.052116 -1.633218 12,000 252 257 0
2022-07-01 15:52:09 GMT 55.053635 -1.624038 12,000 258 257 0
2022-07-01 15:52:07 GMT 55.053635 -1.624038 12,000 259 258 0
2022-07-01 15:52:04 GMT 55.054138 -1.620241 12,000 262 257 -64
2022-07-01 15:52:03 GMT 55.054321 -1.618141 12,000 269 258 0
2022-07-01 15:52:01 GMT 55.054680 -1.614075 12,000 269 258 0
2022-07-01 15:52:00 GMT 55.054779 -1.612163 12,000 269 258 0
2022-07-01 15:51:59 GMT 55.054871 -1.610143 12,000 269 258 0
2022-07-01 15:51:56 GMT 55.054916 -1.601580 12,000 280 260 0
2022-07-01 15:51:53 GMT 55.054817 -1.597013 12,000 280 260 0
2022-07-01 15:51:50 GMT 55.054276 -1.590352 12,000 286 261 0
2022-07-01 15:51:47 GMT 55.053329 -1.583363 12,000 290 262 -64
2022-07-01 15:51:44 GMT 55.051979 -1.576122 12,000 296 264 0
2022-07-01 15:51:41 GMT 55.051048 -1.572210 12,000 299 265 0
2022-07-01 15:51:38 GMT 55.049370 -1.566301 12,000 304 267 0
2022-07-01 15:51:35 GMT 55.046173 -1.557393 12,000 311 269 -64
2022-07-01 15:51:33 GMT 55.043747 -1.552142 12,000 317 270 -64
2022-07-01 15:51:30 GMT 55.043747 -1.552142 12,000 317 270 -64
2022-07-01 15:51:27 GMT 55.041229 -1.547618 12,000 322 271 64
2022-07-01 15:51:24 GMT 55.038666 -1.543829 12,000 326 272 128
2022-07-01 15:51:22 GMT 55.036697 -1.541156 12,000 326 272 128
2022-07-01 15:51:20 GMT 55.034241 -1.538086 12,000 328 274 64
2022-07-01 15:51:18 GMT 55.029121 -1.532343 12,000 328 273 64
2022-07-01 15:51:15 GMT 55.027084 -1.530169 12,000 327 273 0
2022-07-01 15:51:13 GMT 55.025482 -1.528311 12,000 325 272 -64
2022-07-01 15:51:10 GMT 55.023582 -1.526184 12,000 320 270 0
2022-07-01 15:51:08 GMT 55.021999 -1.524020 12,000 320 270 0
2022-07-01 15:51:05 GMT 55.019257 -1.520233 12,000 312 268 0
2022-07-01 15:51:03 GMT 55.017380 -1.517325 12,000 312 268 0
2022-07-01 15:51:02 GMT 55.016418 -1.515629 12,000 312 268 0
2022-07-01 15:51:01 GMT 55.014317 -1.511702 12,000 307 267 0
2022-07-01 15:50:59 GMT 55.014317 -1.511702 12,000 307 267 0
2022-07-01 15:50:56 GMT 55.010128 -1.501548 12,000 299 266 0
2022-07-01 15:50:54 GMT 55.009506 -1.499715 12,000 293 264 0
2022-07-01 15:50:49 GMT 55.007034 -1.490667 12,000 289 264 0
2022-07-01 15:50:45 GMT 55.005424 -1.482655 12,000 283 262 0
2022-07-01 15:50:42 GMT 55.004654 -1.477338 12,000 276 260 0
2022-07-01 15:50:39 GMT 55.003796 -1.468006 12,000 276 260 0
2022-07-01 15:50:37 GMT 55.003796 -1.468006 12,000 274 259 0
2022-07-01 15:50:36 GMT 55.003647 -1.464898 12,000 269 258 0
2022-07-01 15:50:34 GMT 55.003563 -1.460765 12,000 269 258 0
2022-07-01 15:50:31 GMT 55.003609 -1.455772 12,000 266 257 0
2022-07-01 15:50:29 GMT 55.003796 -1.451444 12,000 258 257 0
2022-07-01 15:50:25 GMT 55.004539 -1.442871 12,000 253 256 0
2022-07-01 15:50:22 GMT 55.005386 -1.436866 12,000 252 256 0
2022-07-01 15:50:21 GMT 55.005707 -1.435331 12,000 250 255 0
2022-07-01 15:50:19 GMT 55.006577 -1.430808 12,000 247 255 0
2022-07-01 15:50:17 GMT 55.007263 -1.428142 12,000 245 255 0
2022-07-01 15:50:15 GMT 55.009003 -1.421679 12,000 239 255 0
2022-07-01 15:50:12 GMT 55.011387 -1.415072 12,000 231 255 0
2022-07-01 15:50:10 GMT 55.011387 -1.415072 12,000 231 255 0
2022-07-01 15:50:07 GMT 55.013168 -1.410774 12,000 225 256 0
2022-07-01 15:50:05 GMT 55.014362 -1.408164 12,000 225 256 0
2022-07-01 15:50:03 GMT 55.017288 -1.402776 12,000 218 257 -64
2022-07-01 15:50:00 GMT 55.018936 -1.400111 12,000 218 257 -64
2022-07-01 15:49:57 GMT 55.021767 -1.396013 12,000 216 257 0
2022-07-01 15:49:54 GMT 55.025299 -1.391790 12,000 209 259 0
2022-07-01 15:49:51 GMT 55.030518 -1.387024 12,000 203 260 64
2022-07-01 15:49:48 GMT 55.032288 -1.385775 12,000 201 260 0
2022-07-01 15:49:47 GMT 55.032288 -1.385775 12,000 196 261 0
2022-07-01 15:49:45 GMT 55.034775 -1.384035 12,000 196 261 0
2022-07-01 15:49:43 GMT 55.037083 -1.382779 12,000 194 261 0
2022-07-01 15:49:41 GMT 55.039551 -1.381780 12,000 188 263 0
2022-07-01 15:49:38 GMT 55.043739 -1.380532 12,000 178 265 -64
2022-07-01 15:49:35 GMT 55.046997 -1.380033 12,000 178 265 -64
2022-07-01 15:49:32 GMT 55.049465 -1.379866 12,000 176 266 -64
2022-07-01 15:49:30 GMT 55.052025 -1.380033 12,000 152 272 0
2022-07-01 15:49:29 GMT 55.053360 -1.380238 12,000 152 272 0
2022-07-01 15:49:28 GMT 55.055695 -1.380642 12,000 152 272 0
2022-07-01 15:49:26 GMT 55.057053 -1.381031 12,000 152 272 0
2022-07-01 15:49:24 GMT 55.059723 -1.381935 12,000 152 272 0
2022-07-01 15:49:22 GMT 55.062035 -1.382946 12,000 152 272 0
2022-07-01 15:49:18 GMT 55.066734 -1.385775 12,000 152 272 0
2022-07-01 15:49:15 GMT 55.074787 -1.393016 12,000 133 277 0
2022-07-01 15:49:11 GMT 55.074787 -1.393016 12,000 133 277 0
2022-07-01 15:49:10 GMT 55.078308 -1.397364 12,000 133 277 0
2022-07-01 15:49:08 GMT 55.082153 -1.403180 12,000 133 277 0
2022-07-01 15:49:04 GMT 55.082153 -1.403180 12,000 133 277 0
2022-07-01 15:49:01 GMT 55.084259 -1.407139 12,000 126 280 0
2022-07-01 15:48:59 GMT 55.086891 -1.412659 12,000 126 280 0
2022-07-01 15:48:56 GMT 55.089314 -1.418734 12,000 113 284 0
2022-07-01 15:48:52 GMT 55.090897 -1.423728 12,000 113 284 0
2022-07-01 15:48:49 GMT 55.092525 -1.429721 12,000 109 285 0
2022-07-01 15:48:48 GMT 55.093094 -1.432100 12,000 108 286 0
2022-07-01 15:48:47 GMT 55.093876 -1.435963 12,000 104 287 64
2022-07-01 15:48:44 GMT 55.094971 -1.442683 12,000 99 289 0
2022-07-01 15:48:41 GMT 55.095692 -1.449030 12,000 94 289 0
2022-07-01 15:48:39 GMT 55.095970 -1.453857 12,000 90 291 0
2022-07-01 15:48:36 GMT 55.096111 -1.460682 12,000 83 291 -64
2022-07-01 15:48:34 GMT 55.095978 -1.465625 12,000 83 291 -64
2022-07-01 15:48:32 GMT 55.095703 -1.470068 12,000 79 291 -64
2022-07-01 15:48:31 GMT 55.095459 -1.472584 12,000 75 292 -128
2022-07-01 15:48:30 GMT 55.095181 -1.474915 12,000 70 293 64
2022-07-01 15:48:27 GMT 55.094200 -1.481490 12,000 66 293 64
2022-07-01 15:48:25 GMT 55.093128 -1.486567 12,000 65 293 64
2022-07-01 15:48:24 GMT 55.092087 -1.490990 12,000 65 293 0
2022-07-01 15:48:20 GMT 55.090801 -1.495888 12,000 64 294 0
2022-07-01 15:48:17 GMT 55.088608 -1.503834 12,000 63 293 -64
2022-07-01 15:48:15 GMT 55.087784 -1.506823 12,000 63 293 -64
2022-07-01 15:48:14 GMT 55.085823 -1.513783 12,000 63 293 0
2022-07-01 15:48:08 GMT 55.083069 -1.523626 12,000 63 294 64
2022-07-01 15:48:05 GMT 55.081261 -1.530013 12,000 63 294 64
2022-07-01 15:48:04 GMT 55.080887 -1.531261 12,000 63 294 64
2022-07-01 15:48:02 GMT 55.079723 -1.535506 12,000 63 294 64
2022-07-01 15:47:58 GMT 55.077393 -1.543821 12,000 63 295 0
2022-07-01 15:47:55 GMT 55.073776 -1.556585 12,000 63 295 0
2022-07-01 15:47:52 GMT 55.073776 -1.556585 12,000 63 295 0
2022-07-01 15:47:49 GMT 55.072090 -1.562555 12,000 63 295 0
2022-07-01 15:47:46 GMT 55.070297 -1.568945 12,000 63 295 0
2022-07-01 15:47:44 GMT 55.069759 -1.570878 12,000 64 295 0
2022-07-01 15:47:42 GMT 55.067062 -1.580533 12,000 64 295 0
2022-07-01 15:47:40 GMT 55.065060 -1.588024 12,000 65 296 64
2022-07-01 15:47:37 GMT 55.065060 -1.588024 12,000 65 296 64
2022-07-01 15:47:34 GMT 55.063431 -1.594149 12,000 64 295 64
2022-07-01 15:47:31 GMT 55.061325 -1.602146 12,000 59 296 0
2022-07-01 15:47:28 GMT 55.059940 -1.606750 12,000 59 296 0
2022-07-01 15:47:26 GMT 55.058681 -1.610746 12,000 55 296 64
2022-07-01 15:47:25 GMT 55.057755 -1.613375 12,000 53 296 64
2022-07-01 15:47:23 GMT 55.056259 -1.617154 11,975 49 298 64
2022-07-01 15:47:22 GMT 55.055466 -1.619029 11,975 46 299 0
2022-07-01 15:47:19 GMT 55.053421 -1.623563 11,975 39 300 0
2022-07-01 15:47:18 GMT 55.048828 -1.631308 11,975 39 300 0
2022-07-01 15:47:16 GMT 55.048828 -1.631308 11,975 35 301 -64
2022-07-01 15:47:13 GMT 55.045853 -1.635347 12,000 27 302 -128
2022-07-01 15:47:10 GMT 55.039829 -1.641541 12,000 23 303 -128
2022-07-01 15:47:07 GMT 55.039829 -1.641541 12,000 23 303 -128
2022-07-01 15:47:06 GMT 55.037918 -1.643122 12,000 18 305 -64
2022-07-01 15:47:04 GMT 55.035126 -1.644870 12,000 14 306 0
2022-07-01 15:47:01 GMT 55.025299 -1.648919 12,000 9 309 0
2022-07-01 15:46:57 GMT 55.025299 -1.648919 12,000 8 310 0
2022-07-01 15:46:54 GMT 55.017250 -1.651029 12,000 8 311 0
2022-07-01 15:46:51 GMT 55.017250 -1.651029 12,000 8 311 64
2022-07-01 15:46:49 GMT 55.013809 -1.651908 12,000 8 311 64
2022-07-01 15:46:48 GMT 55.012547 -1.652277 12,000 8 311 64
2022-07-01 15:46:47 GMT 55.008686 -1.653276 12,000 8 311 -64
2022-07-01 15:46:44 GMT 55.007446 -1.653604 12,000 8 311 -64
2022-07-01 15:46:43 GMT 55.005569 -1.654089 12,000 8 311 -64
2022-07-01 15:46:39 GMT 54.994904 -1.656772 12,000 8 311 0
2022-07-01 15:46:36 GMT 54.994904 -1.656772 12,000 8 311 0
2022-07-01 15:46:33 GMT 54.992065 -1.657562 12,000 8 311 0
2022-07-01 15:46:32 GMT 54.989925 -1.658103 12,000 8 311 0
2022-07-01 15:46:31 GMT 54.988342 -1.658519 12,000 8 311 0
2022-07-01 15:46:30 GMT 54.985336 -1.659259 12,000 8 311 0
2022-07-01 15:46:26 GMT 54.981358 -1.660267 12,000 8 312 0
2022-07-01 15:46:23 GMT 54.977097 -1.661359 12,000 8 312 0
2022-07-01 15:46:20 GMT 54.973396 -1.662348 12,000 8 312 0
2022-07-01 15:46:19 GMT 54.969814 -1.663263 12,000 8 312 0
2022-07-01 15:46:18 GMT 54.969814 -1.663263 12,000 8 312 0
2022-07-01 15:46:15 GMT 54.965389 -1.664429 12,000 8 312 -64
2022-07-01 15:46:12 GMT 54.961121 -1.665479 12,000 8 312 -64
2022-07-01 15:46:11 GMT 54.959850 -1.665844 12,000 8 312 -64
2022-07-01 15:46:09 GMT 54.956547 -1.666676 12,000 8 312 -128
2022-07-01 15:46:06 GMT 54.952728 -1.667591 12,000 8 312 -64
2022-07-01 15:46:03 GMT 54.947845 -1.668872 12,000 8 311 0
2022-07-01 15:46:00 GMT 54.943451 -1.670003 12,000 8 311 64
2022-07-01 15:45:57 GMT 54.940613 -1.670730 12,000 8 311 64
2022-07-01 15:45:55 GMT 54.934898 -1.672169 12,000 8 311 64
2022-07-01 15:45:52 GMT 54.932373 -1.672830 12,000 8 311 0
2022-07-01 15:45:50 GMT 54.929672 -1.673476 12,000 8 310 0
2022-07-01 15:45:48 GMT 54.926937 -1.674167 12,000 8 310 0
2022-07-01 15:45:44 GMT 54.920143 -1.675914 12,000 8 310 0
2022-07-01 15:45:41 GMT 54.917862 -1.676414 12,000 8 310 0
2022-07-01 15:45:39 GMT 54.915024 -1.677192 12,000 8 309 0
2022-07-01 15:45:37 GMT 54.908272 -1.678911 12,000 8 309 0
2022-07-01 15:45:34 GMT 54.908272 -1.678911 12,000 8 309 0
2022-07-01 15:45:31 GMT 54.903030 -1.680262 12,000 8 308 0
2022-07-01 15:45:28 GMT 54.897812 -1.681554 12,000 8 308 64
2022-07-01 15:45:25 GMT 54.895569 -1.682120 12,000 8 308 64
2022-07-01 15:45:22 GMT 54.891605 -1.683155 12,000 8 308 0
2022-07-01 15:45:19 GMT 54.885693 -1.684654 12,000 8 307 -64
2022-07-01 15:45:16 GMT 54.879227 -1.686240 12,000 8 307 -64
2022-07-01 15:45:14 GMT 54.879227 -1.686240 12,000 8 307 -64
2022-07-01 15:45:11 GMT 54.874054 -1.687532 12,000 8 307 0
2022-07-01 15:45:08 GMT 54.870804 -1.688340 12,000 8 307 64
2022-07-01 15:45:05 GMT 54.862511 -1.690396 12,000 8 307 64
2022-07-01 15:45:02 GMT 54.862511 -1.690396 12,000 8 307 0
2022-07-01 15:44:59 GMT 54.858856 -1.691329 12,000 8 307 0
2022-07-01 15:44:56 GMT 54.854507 -1.692460 12,000 8 307 0
2022-07-01 15:44:53 GMT 54.850735 -1.693393 12,000 8 307 0
2022-07-01 15:44:50 GMT 54.845657 -1.694641 12,000 8 307 0
2022-07-01 15:44:47 GMT 54.841328 -1.695723 12,000 8 308 0
2022-07-01 15:44:44 GMT 54.837799 -1.696580 12,000 8 308 0
2022-07-01 15:44:41 GMT 54.833725 -1.697549 12,000 8 308 0
2022-07-01 15:44:38 GMT 54.828781 -1.698842 12,000 8 308 0
2022-07-01 15:44:35 GMT 54.819214 -1.701184 12,000 8 308 0
2022-07-01 15:44:32 GMT 54.819214 -1.701184 12,000 8 308 0
2022-07-01 15:44:28 GMT 54.814407 -1.702396 12,000 8 308 64
2022-07-01 15:44:25 GMT 54.810932 -1.703297 12,000 8 308 0
2022-07-01 15:44:22 GMT 54.805710 -1.704658 12,000 8 308 0
2022-07-01 15:44:19 GMT 54.802322 -1.705466 12,000 8 308 -64
2022-07-01 15:44:16 GMT 54.797516 -1.706678 12,000 8 307 -64
2022-07-01 15:44:14 GMT 54.795429 -1.707209 12,000 8 307 -64
2022-07-01 15:44:10 GMT 54.788120 -1.708957 12,000 8 307 0
2022-07-01 15:44:06 GMT 54.783096 -1.710232 12,000 8 306 0
2022-07-01 15:44:01 GMT 54.776505 -1.711848 12,000 8 305 0
2022-07-01 15:43:58 GMT 54.772293 -1.712868 12,000 8 305 64
2022-07-01 15:43:55 GMT 54.766708 -1.714271 12,000 8 304 0
2022-07-01 15:43:52 GMT 54.764797 -1.714699 12,000 8 304 64
2022-07-01 15:43:49 GMT 54.759796 -1.715968 12,000 8 303 0
2022-07-01 15:43:46 GMT 54.755219 -1.717098 12,000 8 303 64
2022-07-01 15:43:44 GMT 54.752972 -1.717613 12,000 8 303 64
2022-07-01 15:43:40 GMT 54.747620 -1.718944 12,000 8 303 0
2022-07-01 15:43:37 GMT 54.739704 -1.720858 12,000 8 303 -64
2022-07-01 15:43:34 GMT 54.739704 -1.720858 12,000 8 303 0
2022-07-01 15:43:31 GMT 54.734726 -1.722107 12,000 8 303 64
2022-07-01 15:43:28 GMT 54.726158 -1.724354 12,000 8 303 64
2022-07-01 15:43:25 GMT 54.726158 -1.724354 12,000 8 304 64
2022-07-01 15:43:22 GMT 54.722668 -1.725186 12,000 8 304 64
2022-07-01 15:43:19 GMT 54.716988 -1.726685 12,000 8 304 0
2022-07-01 15:43:14 GMT 54.711124 -1.728183 12,000 8 305 -64
2022-07-01 15:43:10 GMT 54.706932 -1.729348 12,000 8 305 -128
2022-07-01 15:43:07 GMT 54.701069 -1.730846 12,000 8 305 -128
2022-07-01 15:43:04 GMT 54.697311 -1.731882 12,000 8 305 -64
2022-07-01 15:43:00 GMT 54.690903 -1.733578 12,000 8 306 64
2022-07-01 15:42:57 GMT 54.686005 -1.734870 12,000 8 306 64
2022-07-01 15:42:54 GMT 54.683331 -1.735590 12,000 8 306 64
2022-07-01 15:42:51 GMT 54.678303 -1.736922 12,000 8 306 64
2022-07-01 15:42:47 GMT 54.673828 -1.738102 12,000 8 306 0
2022-07-01 15:42:44 GMT 54.668655 -1.739475 12,000 8 306 0
2022-07-01 15:42:41 GMT 54.665451 -1.740364 12,000 9 304 0
2022-07-01 15:42:38 GMT 54.656937 -1.742498 12,000 92 311 0
2022-07-01 15:42:35 GMT 54.656937 -1.742498 12,000 7 304 64
2022-07-01 15:42:33 GMT 54.654831 -1.742949 12,000 7 304 64
2022-07-01 15:42:30 GMT 54.650528 -1.743999 12,000 9 304 0
2022-07-01 15:42:27 GMT 54.646370 -1.745162 12,000 14 306 0
2022-07-01 15:42:24 GMT 54.637436 -1.748846 12,000 16 307 0
2022-07-01 15:42:21 GMT 54.633705 -1.751154 12,000 24 308 0
2022-07-01 15:42:18 GMT 54.633705 -1.751154 12,000 25 309 -64
2022-07-01 15:42:15 GMT 54.629936 -1.754067 12,000 28 309 -64
2022-07-01 15:42:13 GMT 54.620865 -1.762983 12,000 33 311 -64
2022-07-01 15:42:08 GMT 54.617413 -1.767384 12,000 39 311 -64
2022-07-01 15:42:05 GMT 54.617413 -1.767384 12,000 41 311 -64
2022-07-01 15:42:03 GMT 54.615234 -1.770576 12,000 44 311 -64
2022-07-01 15:41:58 GMT 54.609917 -1.779702 12,000 53 311 64
2022-07-01 15:41:55 GMT 54.606754 -1.786444 12,000 54 311 64
2022-07-01 15:41:52 GMT 54.605392 -1.789560 12,000 57 312 64
2022-07-01 15:41:48 GMT 54.602371 -1.797719 12,000 62 311 64
2022-07-01 15:41:45 GMT 54.599861 -1.806086 12,000 67 311 0
2022-07-01 15:41:43 GMT 54.598434 -1.812098 12,000 71 312 64
2022-07-01 15:41:40 GMT 54.596977 -1.819070 12,000 75 312 64
2022-07-01 15:41:37 GMT 54.596146 -1.824134 12,000 79 312 0
2022-07-01 15:41:34 GMT 54.595161 -1.831388 12,000 80 312 0
2022-07-01 15:41:31 GMT 54.594418 -1.839461 12,000 87 312 -64
2022-07-01 15:41:28 GMT 54.594044 -1.848366 12,000 91 312 0
2022-07-01 15:41:25 GMT 54.593998 -1.854359 12,000 94 311 0
2022-07-01 15:41:23 GMT 54.594231 -1.860518 12,000 96 311 0
2022-07-01 15:41:17 GMT 54.595253 -1.873835 12,000 113 309 64
2022-07-01 15:41:14 GMT 54.596786 -1.884317 12,000 109 309 0
2022-07-01 15:41:12 GMT 54.596786 -1.884317 12,000 115 309 64
2022-07-01 15:41:09 GMT 54.598606 -1.893227 12,000 115 309 64
2022-07-01 15:41:06 GMT 54.600311 -1.899989 12,000 117 309 0
2022-07-01 15:41:03 GMT 54.602325 -1.906693 12,000 136 304 -64
2022-07-01 15:41:00 GMT 54.604519 -1.913036 12,000 127 307 0
2022-07-01 15:40:57 GMT 54.606937 -1.919112 12,000 136 304 -64
2022-07-01 15:40:54 GMT 54.609055 -1.923738 12,000 136 304 -64
2022-07-01 15:40:52 GMT 54.610897 -1.927435 12,000 136 304 -64
2022-07-01 15:40:47 GMT 54.620407 -1.942641 12,000 144 303 0
2022-07-01 15:40:44 GMT 54.620407 -1.942641 12,000 146 302 0
2022-07-01 15:40:40 GMT 54.623932 -1.947004 12,000 149 301 0
2022-07-01 15:40:37 GMT 54.627468 -1.950822 12,000 156 299 0
2022-07-01 15:40:34 GMT 54.633911 -1.956455 12,000 159 298 0
2022-07-01 15:40:31 GMT 54.639862 -1.960171 12,000 159 298 0
2022-07-01 15:40:27 GMT 54.639862 -1.960171 12,000 165 295 0
2022-07-01 15:40:24 GMT 54.647003 -1.963160 12,000 173 293 -64
2022-07-01 15:40:22 GMT 54.647003 -1.963160 12,000 181 292 0
2022-07-01 15:40:19 GMT 54.649979 -1.963725 12,000 181 292 0
2022-07-01 15:40:16 GMT 54.654980 -1.963973 12,000 187 290 64
2022-07-01 15:40:13 GMT 54.659912 -1.962918 12,000 194 290 64
2022-07-01 15:40:10 GMT 54.662010 -1.962308 12,000 197 314 0
2022-07-01 15:40:06 GMT 54.667740 -1.959767 11,975 197 295 64
2022-07-01 15:40:03 GMT 54.671879 -1.957730 12,000 197 292 0
2022-07-01 15:39:59 GMT 54.676674 -1.955317 11,975 197 297 64
2022-07-01 15:39:56 GMT 54.680878 -1.953224 11,975 197 309 448
2022-07-01 15:39:53 GMT 54.684723 -1.951285 11,975 197 301 64
2022-07-01 15:39:50 GMT 54.688568 -1.949346 11,975 197 309 448
2022-07-01 15:39:47 GMT 54.692230 -1.947407 11,925 197 311 576
2022-07-01 15:39:44 GMT 54.696991 -1.944984 11,925 197 312 768
2022-07-01 15:39:42 GMT 54.700424 -1.943207 11,875 197 314 1152
2022-07-01 15:39:39 GMT 54.708656 -1.939004 11,825 197 314 1280
2022-07-01 15:39:36 GMT 54.708656 -1.939004 11,800 197 313 1536
2022-07-01 15:39:33 GMT 54.712425 -1.937089 11,750 197 313 1920
2022-07-01 15:39:30 GMT 54.717827 -1.934343 11,525 197 311 2624
2022-07-01 15:39:27 GMT 54.720428 -1.933028 11,450 197 311 2688
2022-07-01 15:39:24 GMT 54.724857 -1.930764 11,275 197 310 2816
2022-07-01 15:39:21 GMT 54.729538 -1.928424 11,200 197 310 2816
2022-07-01 15:39:18 GMT 54.732582 -1.926852 11,075 197 310 2752
2022-07-01 15:39:15 GMT 54.737427 -1.924438 10,850 197 308 1856
2022-07-01 15:39:12 GMT 54.741100 -1.922524 10,850 197 308 1792
2022-07-01 15:39:09 GMT 54.744549 -1.920776 10,775 197 300 1024
2022-07-01 15:39:06 GMT 54.748970 -1.918446 10,700 197 300 1024
2022-07-01 15:39:03 GMT 54.753525 -1.916145 10,675 197 298 1088
2022-07-01 15:39:00 GMT 54.757210 -1.914201 10,625 197 294 1088
2022-07-01 15:38:56 GMT 54.762283 -1.911621 10,550 197 286 704
2022-07-01 15:38:53 GMT 54.766239 -1.909624 10,500 197 281 768
2022-07-01 15:38:50 GMT 54.770290 -1.907543 10,400 197 279 1024
2022-07-01 15:38:45 GMT 54.777088 -1.904047 10,350 197 273 2048
2022-07-01 15:38:42 GMT 54.780258 -1.902412 10,250 197 273 2368
2022-07-01 15:38:39 GMT 54.782768 -1.901134 10,150 197 272 2624
2022-07-01 15:38:36 GMT 54.787491 -1.898696 9,875 197 271 2752
2022-07-01 15:38:33 GMT 54.790588 -1.897139 9,800 197 270 2688
2022-07-01 15:38:30 GMT 54.798843 -1.892880 9,625 197 269 2752
2022-07-01 15:38:26 GMT 54.798843 -1.892880 9,475 197 269 2944
2022-07-01 15:38:23 GMT 54.802551 -1.890941 9,475 197 269 2944
2022-07-01 15:38:20 GMT 54.806259 -1.889083 9,200 197 269 3136
2022-07-01 15:38:17 GMT 54.809349 -1.887484 8,975 197 269 3136
2022-07-01 15:38:14 GMT 54.816841 -1.883573 8,775 197 269 3072
2022-07-01 15:38:09 GMT 54.819260 -1.882297 8,675 197 270 2944
2022-07-01 15:38:06 GMT 54.822693 -1.880520 8,450 197 271 2048
2022-07-01 15:38:03 GMT 54.827503 -1.877996 8,375 197 271 1920
2022-07-01 15:37:58 GMT 54.831940 -1.875673 8,125 197 270 1152
2022-07-01 15:37:55 GMT 54.836014 -1.873492 8,200 197 270 1216
2022-07-01 15:37:52 GMT 54.839375 -1.871754 8,150 198 269 960
2022-07-01 15:37:49 GMT 54.844261 -1.869174 8,075 198 270 832
2022-07-01 15:37:45 GMT 54.848419 -1.866949 8,050 198 269 512
2022-07-01 15:37:42 GMT 54.851990 -1.865012 8,025 198 268 384
2022-07-01 15:37:39 GMT 54.856018 -1.862748 8,000 199 267 128
2022-07-01 15:37:36 GMT 54.858948 -1.861132 8,000 199 267 256
2022-07-01 15:37:33 GMT 54.862244 -1.859194 7,975 200 265 832
2022-07-01 15:37:30 GMT 54.866329 -1.856773 7,950 199 264 1216
2022-07-01 15:37:26 GMT 54.870255 -1.854428 7,825 199 261 2176
2022-07-01 15:37:22 GMT 54.874969 -1.851600 7,775 199 262 1920
2022-07-01 15:37:18 GMT 54.879597 -1.848866 7,700 199 262 2048
2022-07-01 15:37:15 GMT 54.882435 -1.847118 7,575 200 260 2560
2022-07-01 15:37:12 GMT 54.885975 -1.845037 7,200 200 259 2880
2022-07-01 15:37:08 GMT 54.891266 -1.841826 7,200 200 258 3008
2022-07-01 15:37:05 GMT 54.894012 -1.840210 7,050 200 258 3008
2022-07-01 15:37:02 GMT 54.897842 -1.837880 6,900 200 258 3072
2022-07-01 15:36:58 GMT 54.902664 -1.834878 6,625 200 258 2752
2022-07-01 15:36:55 GMT 54.904907 -1.833505 6,500 200 257 2560
2022-07-01 15:36:52 GMT 54.909439 -1.830758 6,400 200 257 2368
2022-07-01 15:36:47 GMT 54.914886 -1.827446 6,225 200 253 2368
2022-07-01 15:36:43 GMT 54.920097 -1.824313 6,025 200 252 2368
2022-07-01 15:36:39 GMT 54.923401 -1.822316 5,900 200 228 1920
2022-07-01 15:36:36 GMT 54.927544 -1.819819 5,850 200 245 896
2022-07-01 15:36:32 GMT 54.931084 -1.817738 5,800 200 238 768
2022-07-01 15:36:28 GMT 54.934616 -1.815572 5,750 199 233 1152
2022-07-01 15:36:25 GMT 54.938599 -1.813229 5,650 200 228 1792
2022-07-01 15:36:22 GMT 54.941208 -1.811613 5,550 200 227 2304
2022-07-01 15:36:18 GMT 54.944584 -1.809581 5,425 200 226 2816
2022-07-01 15:36:15 GMT 54.948807 -1.806928 5,200 200 225 3072
2022-07-01 15:36:12 GMT 54.951187 -1.805474 5,075 201 226 3072
2022-07-01 15:36:08 GMT 54.955196 -1.802923 4,825 201 224 2560
2022-07-01 15:36:05 GMT 54.958221 -1.800926 4,600 201 222 2112
2022-07-01 15:36:02 GMT 54.961029 -1.799092 4,650 201 220 1920
2022-07-01 15:35:56 GMT 54.967438 -1.794730 4,425 202 213 1728
2022-07-01 15:35:52 GMT 54.970459 -1.792710 4,350 202 209 1472
2022-07-01 15:35:48 GMT 54.974075 -1.790206 4,250 202 198 640
2022-07-01 15:35:45 GMT 54.976639 -1.788429 4,250 202 194 704
2022-07-01 15:35:42 GMT 54.979870 -1.786277 4,200 202 191 896
2022-07-01 15:35:38 GMT 54.982498 -1.784551 4,150 201 184 1472
2022-07-01 15:35:35 GMT 54.984524 -1.783198 4,075 201 182 1984
2022-07-01 15:35:30 GMT 54.988861 -1.780351 3,900 200 181 2496
2022-07-01 15:35:25 GMT 54.992569 -1.778008 3,675 199 181 2624
2022-07-01 15:35:21 GMT 54.995682 -1.776231 3,525 197 181 2560
2022-07-01 15:35:15 GMT 55.000771 -1.773793 3,250 192 182 2432
2022-07-01 15:35:11 GMT 55.004242 -1.772596 3,075 191 182 2496
2022-07-01 15:35:04 GMT 55.009872 -1.770738 2,800 201 180 2496
2022-07-01 15:35:00 GMT 55.012596 -1.769132 2,650 209 179 2496
2022-07-01 15:34:55 GMT 55.016739 -1.764679 2,425 229 177 2304
2022-07-01 15:34:50 GMT 55.018982 -1.760074 2,275 241 175 2112
2022-07-01 15:34:44 GMT 55.021347 -1.752319 2,075 246 168 1472
2022-07-01 15:34:40 GMT 55.022789 -1.746660 1,975 246 165 1536
2022-07-01 15:34:35 GMT 55.024063 -1.741575 1,875 246 157 832
2022-07-01 15:34:31 GMT 55.025665 -1.735517 1,800 246 153 1152
2022-07-01 15:34:25 GMT 55.027210 -1.729514 1,675 246 148 1792
2022-07-01 15:34:20 GMT 55.028549 -1.724450 1,500 246 146 2496
2022-07-01 15:34:15 GMT 55.030106 -1.718633 1,225 245 149 3200
2022-07-01 15:34:10 GMT 55.031433 -1.713786 1,000 245 150 2944
2022-07-01 15:34:04 GMT 55.033264 -1.707082 675 245 152 3200
2022-07-01 15:34:00 GMT 55.034546 -1.702396 475 245 157 2880
2022-07-01 15:33:44 GMT 55.038990 -1.685736 275 246 133 192
2022-07-01 15:33:41 GMT 55.039829 -1.682656 275 246 88 0
2022-07-01 15:33:29 GMT 55.041656 -1.675727 0 244 39
2022-07-01 15:33:16 GMT 55.042088 -1.674123 0 241 0
2022-07-01 15:33:06 GMT 55.042095 -1.674104 0 241 0
2022-07-01 15:32:51 GMT 55.042099 -1.674102 0 241 0
2022-07-01 15:32:46 GMT 55.042095 -1.674104 0 241 0
2022-07-01 15:32:37 GMT 55.042088 -1.674102 0 241 0
2022-07-01 15:31:58 GMT 55.042095 -1.674104 0 241 0
2022-07-01 15:31:47 GMT 55.042088 -1.674102 0 241 0
2022-07-01 15:31:35 GMT 55.042179 -1.673813 0 216 6
2022-07-01 15:31:28 GMT 55.042377 -1.673605 0 180 8
2022-07-01 15:31:17 GMT 55.042751 -1.673678 0 165 9
2022-07-01 15:31:06 GMT 55.043118 -1.673981 0 126 8
2022-07-01 15:30:57 GMT 55.043251 -1.674416 0 98 7
2022-07-01 15:30:46 GMT 55.043289 -1.675011 0 95 9
2022-07-01 15:30:37 GMT 55.043324 -1.675718 0 90 10
2022-07-01 15:30:27 GMT 55.043076 -1.677184 0 64 18
2022-07-01 15:30:20 GMT 55.043076 -1.677184 0 64 15
2022-07-01 15:30:14 GMT 55.042900 -1.677818 0 64 16
2022-07-01 15:30:05 GMT 55.042633 -1.678807 0 64 18
2022-07-01 15:29:56 GMT 55.042343 -1.679930 0 64 19
2022-07-01 15:29:45 GMT 55.041889 -1.681636 0 64 20
2022-07-01 15:29:36 GMT 55.041561 -1.682887 0 64 20
2022-07-01 15:29:25 GMT 55.041157 -1.684425 0 64 20
2022-07-01 15:29:15 GMT 55.040737 -1.686018 0 64 19
2022-07-01 15:29:06 GMT 55.040451 -1.687068 0 64 19
2022-07-01 15:28:55 GMT 55.040012 -1.688732 0 64 21
2022-07-01 15:28:45 GMT 55.039597 -1.690292 0 64 21
2022-07-01 15:28:35 GMT 55.039223 -1.691686 0 64 22
2022-07-01 15:28:22 GMT 55.038689 -1.693705 0 64 21
2022-07-01 15:28:14 GMT 55.038391 -1.694904 0 67 21
2022-07-01 15:28:00 GMT 55.037945 -1.697304 0 78 19
2022-07-01 15:27:33 GMT 55.037724 -1.700738 0 90 15
2022-07-01 15:27:17 GMT 55.037762 -1.702477 0 92 11
2022-07-01 15:27:13 GMT 55.037773 -1.702739 0 95 10
2022-07-01 15:26:59 GMT 55.037899 -1.703668 0 137 9
2022-07-01 15:26:53 GMT 55.038116 -1.703942 0 171 9
2022-07-01 15:26:28 GMT 55.038860 -1.703769 0 258 5
We lost coverage of the aircraft here for a total of 14 minutes
2022-07-01 15:12:22 GMT 55.038860 -1.703151 0 272 5
2022-07-01 15:12:08 GMT 55.038792 -1.703588 0 250 4
2022-07-01 15:11:44 GMT 55.038406 -1.703942 0 196 5
2022-07-01 15:11:37 GMT 55.038292 -1.703963 0 188 5
2022-07-01 15:11:25 GMT 55.038013 -1.704113 0 199 6
2022-07-01 15:11:15 GMT 55.037807 -1.704214 0 196 4
2022-07-01 15:11:09 GMT 55.037693 -1.704274 0 194 4
2022-07-01 15:11:00 GMT 55.037560 -1.704254 0 182 4
2022-07-01 15:10:16 GMT 55.036674 -1.704456 0 194 4
2022-07-01 15:10:09 GMT 55.036583 -1.704517 0 199 5
2022-07-01 15:09:52 GMT 55.036274 -1.704820 0 216 5
2022-07-01 15:09:38 GMT 55.036068 -1.705295 0 236 5
2022-07-01 15:09:21 GMT 55.035931 -1.705870 0 253 5
2022-07-01 15:09:15 GMT 55.035919 -1.706127 0 267 5
2022-07-01 15:09:07 GMT 55.035931 -1.706356 0 272 5
2022-07-01 15:08:54 GMT 55.035954 -1.706799 0 275 4

Making use of Plane Finder data

You are free to use the raw flight data, aircraft information and images provided in this report for your own purposes provided the data is correctly attributed to Plane Finder. We ask that you please credit Plane Finder and link to planefinder.net in close proximity to the content.

Optionally one of the following logos (no smaller then 150x24px) can be used and must link to planefinder.net

Embedding the Plane Finder map

You are welcome to embed the Plane Finder playback map on your website to offer visitors a more interactive experience. We suggest using the following HTML code:

<iframe src="//planefinder.net/data/report/LS507-G-JZBH-7700-squawk-2022-07-01/map" width="800" height="600" seamless="seamless"></iframe>

Where our data comes from

Plane Finder has a global network of data feeds and antenna radars that receive data broadcast directly from aircraft. The primary technologies used are ADS-B and MLAT. We also show feeds from the FAA and a FLARM glider feed.

Click here to find out more about the Plane Finder network.

How we collect our data